sensor_id;sensor_type;location;lat;lon;timestamp;P1;durP1;ratioP1;P2;durP2;ratioP2
28455;SDS011;15682;56.742;38.866;2024-01-30T00:01:07;9.8;;;4.9;;
28455;SDS011;15682;56.742;38.866;2024-01-30T00:03:06;10.2;;;4.8;;
28455;SDS011;15682;56.742;38.866;2024-01-30T00:05:07;9.7;;;4.7;;
28455;SDS011;15682;56.742;38.866;2024-01-30T00:07:06;8.5;;;4.9;;
28455;SDS011;15682;56.742;38.866;2024-01-30T00:09:06;8.5;;;4.3;;
28455;SDS011;15682;56.742;38.866;2024-01-30T00:11:07;10.8;;;4.5;;
28455;SDS011;15682;56.742;38.866;2024-01-30T00:13:06;9.7;;;4.6;;
28455;SDS011;15682;56.742;38.866;2024-01-30T00:15:06;8.9;;;4.7;;
28455;SDS011;15682;56.742;38.866;2024-01-30T00:17:06;9.1;;;4.9;;
28455;SDS011;15682;56.742;38.866;2024-01-30T00:19:06;7.7;;;4.6;;
28455;SDS011;15682;56.742;38.866;2024-01-30T00:21:06;8.4;;;5.1;;
28455;SDS011;15682;56.742;38.866;2024-01-30T00:23:06;8.3;;;4.7;;
28455;SDS011;15682;56.742;38.866;2024-01-30T00:25:06;10.0;;;5.0;;
28455;SDS011;15682;56.742;38.866;2024-01-30T00:27:06;10.0;;;5.0;;
28455;SDS011;15682;56.742;38.866;2024-01-30T00:29:05;9.3;;;4.8;;
28455;SDS011;15682;56.742;38.866;2024-01-30T00:31:05;8.4;;;4.9;;
28455;SDS011;15682;56.742;38.866;2024-01-30T00:33:05;8.2;;;4.5;;
28455;SDS011;15682;56.742;38.866;2024-01-30T00:35:05;9.4;;;5.4;;
28455;SDS011;15682;56.742;38.866;2024-01-30T00:37:05;9.1;;;4.7;;
28455;SDS011;15682;56.742;38.866;2024-01-30T00:39:05;12.2;;;5.7;;
28455;SDS011;15682;56.742;38.866;2024-01-30T00:41:05;9.2;;;4.9;;
28455;SDS011;15682;56.742;38.866;2024-01-30T00:43:05;8.0;;;4.9;;
28455;SDS011;15682;56.742;38.866;2024-01-30T00:45:05;8.7;;;4.7;;
28455;SDS011;15682;56.742;38.866;2024-01-30T00:47:05;9.8;;;4.8;;
28455;SDS011;15682;56.742;38.866;2024-01-30T00:49:04;8.5;;;4.7;;
28455;SDS011;15682;56.742;38.866;2024-01-30T00:51:04;9.5;;;5.0;;
28455;SDS011;15682;56.742;38.866;2024-01-30T00:53:04;8.0;;;4.8;;
28455;SDS011;15682;56.742;38.866;2024-01-30T00:55:05;9.9;;;5.1;;
28455;SDS011;15682;56.742;38.866;2024-01-30T00:57:04;8.7;;;5.0;;
28455;SDS011;15682;56.742;38.866;2024-01-30T00:59:04;9.8;;;5.2;;
28455;SDS011;15682;56.742;38.866;2024-01-30T01:01:04;8.6;;;5.0;;
28455;SDS011;15682;56.742;38.866;2024-01-30T01:03:04;8.9;;;4.9;;
28455;SDS011;15682;56.742;38.866;2024-01-30T01:05:04;9.7;;;5.1;;
28455;SDS011;15682;56.742;38.866;2024-01-30T01:07:04;7.5;;;5.1;;
28455;SDS011;15682;56.742;38.866;2024-01-30T01:09:04;8.4;;;5.1;;
28455;SDS011;15682;56.742;38.866;2024-01-30T01:11:04;9.0;;;5.1;;
28455;SDS011;15682;56.742;38.866;2024-01-30T01:13:03;8.3;;;4.8;;
28455;SDS011;15682;56.742;38.866;2024-01-30T01:15:04;9.3;;;5.3;;
28455;SDS011;15682;56.742;38.866;2024-01-30T01:17:03;10.0;;;5.2;;
28455;SDS011;15682;56.742;38.866;2024-01-30T01:19:03;9.5;;;5.5;;
28455;SDS011;15682;56.742;38.866;2024-01-30T01:21:03;8.7;;;5.4;;
28455;SDS011;15682;56.742;38.866;2024-01-30T01:23:03;8.5;;;5.1;;
28455;SDS011;15682;56.742;38.866;2024-01-30T01:25:03;9.6;;;5.1;;
28455;SDS011;15682;56.742;38.866;2024-01-30T01:27:03;10.8;;;5.4;;
28455;SDS011;15682;56.742;38.866;2024-01-30T01:29:03;9.3;;;5.3;;
28455;SDS011;15682;56.742;38.866;2024-01-30T01:31:03;9.2;;;5.1;;
28455;SDS011;15682;56.742;38.866;2024-01-30T01:33:03;9.4;;;5.0;;
28455;SDS011;15682;56.742;38.866;2024-01-30T01:35:03;9.5;;;5.4;;
28455;SDS011;15682;56.742;38.866;2024-01-30T01:37:03;10.2;;;5.4;;
28455;SDS011;15682;56.742;38.866;2024-01-30T01:39:02;8.4;;;5.3;;
28455;SDS011;15682;56.742;38.866;2024-01-30T01:41:02;9.0;;;5.5;;
28455;SDS011;15682;56.742;38.866;2024-01-30T01:43:02;10.6;;;4.8;;
28455;SDS011;15682;56.742;38.866;2024-01-30T01:45:02;8.4;;;4.8;;
28455;SDS011;15682;56.742;38.866;2024-01-30T01:47:02;10.2;;;5.3;;
28455;SDS011;15682;56.742;38.866;2024-01-30T01:49:02;8.7;;;5.6;;
28455;SDS011;15682;56.742;38.866;2024-01-30T01:51:02;8.6;;;5.2;;
28455;SDS011;15682;56.742;38.866;2024-01-30T01:53:02;9.4;;;5.3;;
28455;SDS011;15682;56.742;38.866;2024-01-30T01:55:02;9.5;;;5.5;;
28455;SDS011;15682;56.742;38.866;2024-01-30T01:57:02;8.9;;;5.2;;
28455;SDS011;15682;56.742;38.866;2024-01-30T01:59:04;11.9;;;5.5;;
28455;SDS011;15682;56.742;38.866;2024-01-30T02:01:01;10.9;;;5.3;;
28455;SDS011;15682;56.742;38.866;2024-01-30T02:03:01;10.9;;;5.8;;
28455;SDS011;15682;56.742;38.866;2024-01-30T02:05:01;10.9;;;5.5;;
28455;SDS011;15682;56.742;38.866;2024-01-30T02:07:01;12.0;;;5.5;;
28455;SDS011;15682;56.742;38.866;2024-01-30T02:09:01;10.5;;;5.8;;
28455;SDS011;15682;56.742;38.866;2024-01-30T02:11:01;10.7;;;5.5;;
28455;SDS011;15682;56.742;38.866;2024-01-30T02:13:01;10.0;;;5.2;;
28455;SDS011;15682;56.742;38.866;2024-01-30T02:15:01;9.4;;;5.4;;
28455;SDS011;15682;56.742;38.866;2024-01-30T02:17:01;8.0;;;5.1;;
28455;SDS011;15682;56.742;38.866;2024-01-30T02:19:01;10.4;;;5.3;;
28455;SDS011;15682;56.742;38.866;2024-01-30T02:21:03;9.3;;;5.3;;
28455;SDS011;15682;56.742;38.866;2024-01-30T02:23:00;9.8;;;5.4;;
28455;SDS011;15682;56.742;38.866;2024-01-30T02:25:00;9.1;;;5.3;;
28455;SDS011;15682;56.742;38.866;2024-01-30T02:27:00;10.6;;;5.2;;
28455;SDS011;15682;56.742;38.866;2024-01-30T02:29:00;10.2;;;5.8;;
28455;SDS011;15682;56.742;38.866;2024-01-30T02:31:00;8.8;;;5.2;;
28455;SDS011;15682;56.742;38.866;2024-01-30T02:33:01;11.2;;;5.6;;
28455;SDS011;15682;56.742;38.866;2024-01-30T02:35:00;9.1;;;4.9;;
28455;SDS011;15682;56.742;38.866;2024-01-30T02:37:00;9.9;;;5.3;;
28455;SDS011;15682;56.742;38.866;2024-01-30T02:39:00;11.0;;;5.3;;
28455;SDS011;15682;56.742;38.866;2024-01-30T02:41:00;9.6;;;5.7;;
28455;SDS011;15682;56.742;38.866;2024-01-30T02:43:01;9.6;;;5.0;;
28455;SDS011;15682;56.742;38.866;2024-01-30T02:45:00;8.3;;;5.1;;
28455;SDS011;15682;56.742;38.866;2024-01-30T02:47:00;10.1;;;5.6;;
28455;SDS011;15682;56.742;38.866;2024-01-30T02:48:59;10.6;;;5.5;;
28455;SDS011;15682;56.742;38.866;2024-01-30T02:50:59;11.1;;;5.4;;
28455;SDS011;15682;56.742;38.866;2024-01-30T02:52:59;9.6;;;5.1;;
28455;SDS011;15682;56.742;38.866;2024-01-30T02:54:59;8.9;;;5.7;;
28455;SDS011;15682;56.742;38.866;2024-01-30T02:56:59;12.6;;;5.4;;
28455;SDS011;15682;56.742;38.866;2024-01-30T02:58:59;10.5;;;5.3;;
28455;SDS011;15682;56.742;38.866;2024-01-30T03:00:59;9.6;;;5.4;;
28455;SDS011;15682;56.742;38.866;2024-01-30T03:02:59;9.3;;;5.3;;
28455;SDS011;15682;56.742;38.866;2024-01-30T03:04:59;9.0;;;5.0;;
28455;SDS011;15682;56.742;38.866;2024-01-30T03:06:59;8.4;;;5.0;;
28455;SDS011;15682;56.742;38.866;2024-01-30T03:08:59;8.7;;;4.9;;
28455;SDS011;15682;56.742;38.866;2024-01-30T03:10:59;11.2;;;5.5;;
28455;SDS011;15682;56.742;38.866;2024-01-30T03:12:58;10.6;;;5.4;;
28455;SDS011;15682;56.742;38.866;2024-01-30T03:14:58;11.9;;;5.7;;
28455;SDS011;15682;56.742;38.866;2024-01-30T03:16:58;12.3;;;5.3;;
28455;SDS011;15682;56.742;38.866;2024-01-30T03:18:58;9.3;;;5.2;;
28455;SDS011;15682;56.742;38.866;2024-01-30T03:20:58;9.6;;;5.1;;
28455;SDS011;15682;56.742;38.866;2024-01-30T03:22:59;11.7;;;5.7;;
28455;SDS011;15682;56.742;38.866;2024-01-30T03:24:58;8.2;;;4.7;;
28455;SDS011;15682;56.742;38.866;2024-01-30T03:26:58;9.6;;;5.1;;
28455;SDS011;15682;56.742;38.866;2024-01-30T03:28:58;10.9;;;5.5;;
28455;SDS011;15682;56.742;38.866;2024-01-30T03:30:58;9.2;;;5.2;;
28455;SDS011;15682;56.742;38.866;2024-01-30T03:32:58;9.5;;;4.9;;
28455;SDS011;15682;56.742;38.866;2024-01-30T03:34:58;11.9;;;6.3;;
28455;SDS011;15682;56.742;38.866;2024-01-30T03:36:58;7.8;;;4.8;;
28455;SDS011;15682;56.742;38.866;2024-01-30T03:38:58;9.4;;;4.9;;
28455;SDS011;15682;56.742;38.866;2024-01-30T03:40:58;11.5;;;5.2;;
28455;SDS011;15682;56.742;38.866;2024-01-30T03:42:57;9.9;;;5.1;;
28455;SDS011;15682;56.742;38.866;2024-01-30T03:44:57;11.5;;;5.0;;
28455;SDS011;15682;56.742;38.866;2024-01-30T03:46:57;10.7;;;4.9;;
28455;SDS011;15682;56.742;38.866;2024-01-30T03:48:57;11.4;;;5.2;;
28455;SDS011;15682;56.742;38.866;2024-01-30T03:50:57;9.8;;;5.3;;
28455;SDS011;15682;56.742;38.866;2024-01-30T03:52:57;9.4;;;5.0;;
28455;SDS011;15682;56.742;38.866;2024-01-30T03:54:57;10.7;;;5.1;;
28455;SDS011;15682;56.742;38.866;2024-01-30T03:56:57;13.0;;;5.5;;
28455;SDS011;15682;56.742;38.866;2024-01-30T03:58:57;10.8;;;5.2;;
28455;SDS011;15682;56.742;38.866;2024-01-30T04:00:57;9.4;;;5.0;;
28455;SDS011;15682;56.742;38.866;2024-01-30T04:02:57;11.7;;;4.9;;
28455;SDS011;15682;56.742;38.866;2024-01-30T04:04:57;11.8;;;5.3;;
28455;SDS011;15682;56.742;38.866;2024-01-30T04:06:56;9.6;;;5.3;;
28455;SDS011;15682;56.742;38.866;2024-01-30T04:08:56;11.6;;;5.6;;
28455;SDS011;15682;56.742;38.866;2024-01-30T04:10:56;13.8;;;7.4;;
28455;SDS011;15682;56.742;38.866;2024-01-30T04:12:56;8.8;;;5.0;;
28455;SDS011;15682;56.742;38.866;2024-01-30T04:14:56;10.1;;;5.4;;
28455;SDS011;15682;56.742;38.866;2024-01-30T04:16:56;10.5;;;5.5;;
28455;SDS011;15682;56.742;38.866;2024-01-30T04:18:56;10.0;;;5.3;;
28455;SDS011;15682;56.742;38.866;2024-01-30T04:20:56;11.2;;;5.6;;
28455;SDS011;15682;56.742;38.866;2024-01-30T04:22:56;10.4;;;5.4;;
28455;SDS011;15682;56.742;38.866;2024-01-30T04:24:56;10.8;;;5.4;;
28455;SDS011;15682;56.742;38.866;2024-01-30T04:26:56;10.4;;;5.5;;
28455;SDS011;15682;56.742;38.866;2024-01-30T04:28:56;9.6;;;5.4;;
28455;SDS011;15682;56.742;38.866;2024-01-30T04:30:56;9.1;;;5.6;;
28455;SDS011;15682;56.742;38.866;2024-01-30T04:32:56;10.2;;;5.7;;
28455;SDS011;15682;56.742;38.866;2024-01-30T04:34:56;12.4;;;5.2;;
28455;SDS011;15682;56.742;38.866;2024-01-30T04:36:56;10.0;;;5.2;;
28455;SDS011;15682;56.742;38.866;2024-01-30T04:38:55;9.2;;;5.4;;
28455;SDS011;15682;56.742;38.866;2024-01-30T04:40:55;10.7;;;5.8;;
28455;SDS011;15682;56.742;38.866;2024-01-30T04:42:55;10.9;;;5.7;;
28455;SDS011;15682;56.742;38.866;2024-01-30T04:44:55;10.1;;;5.6;;
28455;SDS011;15682;56.742;38.866;2024-01-30T04:46:55;12.2;;;5.7;;
28455;SDS011;15682;56.742;38.866;2024-01-30T04:48:55;10.3;;;5.3;;
28455;SDS011;15682;56.742;38.866;2024-01-30T04:50:55;9.7;;;5.2;;
28455;SDS011;15682;56.742;38.866;2024-01-30T04:52:55;12.3;;;5.6;;
28455;SDS011;15682;56.742;38.866;2024-01-30T04:54:55;10.2;;;5.5;;
28455;SDS011;15682;56.742;38.866;2024-01-30T04:56:55;11.7;;;5.5;;
28455;SDS011;15682;56.742;38.866;2024-01-30T04:58:55;15.8;;;6.7;;
28455;SDS011;15682;56.742;38.866;2024-01-30T05:00:55;11.4;;;5.9;;
28455;SDS011;15682;56.742;38.866;2024-01-30T05:02:55;11.7;;;5.6;;
28455;SDS011;15682;56.742;38.866;2024-01-30T05:04:55;11.8;;;5.8;;
28455;SDS011;15682;56.742;38.866;2024-01-30T05:06:55;11.8;;;5.4;;
28455;SDS011;15682;56.742;38.866;2024-01-30T05:08:55;11.9;;;6.0;;
28455;SDS011;15682;56.742;38.866;2024-01-30T05:10:55;10.4;;;5.2;;
28455;SDS011;15682;56.742;38.866;2024-01-30T05:12:54;10.4;;;5.8;;
28455;SDS011;15682;56.742;38.866;2024-01-30T05:14:54;9.8;;;5.4;;
28455;SDS011;15682;56.742;38.866;2024-01-30T05:16:54;11.6;;;6.1;;
28455;SDS011;15682;56.742;38.866;2024-01-30T05:18:54;13.4;;;5.7;;
28455;SDS011;15682;56.742;38.866;2024-01-30T05:20:54;11.2;;;6.2;;
28455;SDS011;15682;56.742;38.866;2024-01-30T05:22:54;13.4;;;6.1;;
28455;SDS011;15682;56.742;38.866;2024-01-30T05:24:54;10.7;;;5.6;;
28455;SDS011;15682;56.742;38.866;2024-01-30T05:26:54;13.4;;;5.5;;
28455;SDS011;15682;56.742;38.866;2024-01-30T05:28:54;11.4;;;5.5;;
28455;SDS011;15682;56.742;38.866;2024-01-30T05:30:54;13.6;;;6.2;;
28455;SDS011;15682;56.742;38.866;2024-01-30T05:32:54;12.2;;;6.0;;
28455;SDS011;15682;56.742;38.866;2024-01-30T05:34:54;13.1;;;5.9;;
28455;SDS011;15682;56.742;38.866;2024-01-30T05:36:54;13.1;;;6.3;;
28455;SDS011;15682;56.742;38.866;2024-01-30T05:38:54;11.9;;;5.9;;
28455;SDS011;15682;56.742;38.866;2024-01-30T05:40:54;16.2;;;6.7;;
28455;SDS011;15682;56.742;38.866;2024-01-30T05:42:54;11.3;;;6.1;;
28455;SDS011;15682;56.742;38.866;2024-01-30T05:44:54;12.2;;;5.7;;
28455;SDS011;15682;56.742;38.866;2024-01-30T05:46:53;14.7;;;6.1;;
28455;SDS011;15682;56.742;38.866;2024-01-30T05:48:53;12.3;;;5.9;;
28455;SDS011;15682;56.742;38.866;2024-01-30T05:50:53;14.1;;;6.1;;
28455;SDS011;15682;56.742;38.866;2024-01-30T05:52:53;11.3;;;6.2;;
28455;SDS011;15682;56.742;38.866;2024-01-30T05:54:53;15.0;;;6.2;;
28455;SDS011;15682;56.742;38.866;2024-01-30T05:56:53;13.9;;;6.4;;
28455;SDS011;15682;56.742;38.866;2024-01-30T05:58:53;11.4;;;5.9;;
28455;SDS011;15682;56.742;38.866;2024-01-30T06:00:53;12.8;;;6.0;;
28455;SDS011;15682;56.742;38.866;2024-01-30T06:02:53;11.7;;;6.1;;
28455;SDS011;15682;56.742;38.866;2024-01-30T06:04:53;15.8;;;6.1;;
28455;SDS011;15682;56.742;38.866;2024-01-30T06:06:53;12.8;;;5.8;;
28455;SDS011;15682;56.742;38.866;2024-01-30T06:08:53;14.3;;;6.2;;
28455;SDS011;15682;56.742;38.866;2024-01-30T06:10:53;11.8;;;5.9;;
28455;SDS011;15682;56.742;38.866;2024-01-30T06:12:53;13.0;;;6.4;;
28455;SDS011;15682;56.742;38.866;2024-01-30T06:14:53;13.9;;;6.1;;
28455;SDS011;15682;56.742;38.866;2024-01-30T06:16:53;12.8;;;6.1;;
28455;SDS011;15682;56.742;38.866;2024-01-30T06:18:52;11.9;;;6.2;;
28455;SDS011;15682;56.742;38.866;2024-01-30T06:20:52;16.6;;;6.2;;
28455;SDS011;15682;56.742;38.866;2024-01-30T06:22:52;11.5;;;6.1;;
28455;SDS011;15682;56.742;38.866;2024-01-30T06:24:52;15.5;;;6.5;;
28455;SDS011;15682;56.742;38.866;2024-01-30T06:26:52;13.0;;;6.3;;
28455;SDS011;15682;56.742;38.866;2024-01-30T06:28:52;13.3;;;6.4;;
28455;SDS011;15682;56.742;38.866;2024-01-30T06:30:52;15.6;;;6.5;;
28455;SDS011;15682;56.742;38.866;2024-01-30T06:32:52;14.6;;;6.6;;
28455;SDS011;15682;56.742;38.866;2024-01-30T06:34:52;11.2;;;6.3;;
28455;SDS011;15682;56.742;38.866;2024-01-30T06:36:52;14.9;;;7.1;;
28455;SDS011;15682;56.742;38.866;2024-01-30T06:38:52;14.8;;;6.9;;
28455;SDS011;15682;56.742;38.866;2024-01-30T06:40:52;15.5;;;6.5;;
28455;SDS011;15682;56.742;38.866;2024-01-30T06:42:52;12.3;;;6.7;;
28455;SDS011;15682;56.742;38.866;2024-01-30T06:44:52;15.9;;;7.1;;
28455;SDS011;15682;56.742;38.866;2024-01-30T06:46:52;16.9;;;7.2;;
28455;SDS011;15682;56.742;38.866;2024-01-30T06:48:52;13.9;;;6.9;;
28455;SDS011;15682;56.742;38.866;2024-01-30T06:50:53;20.1;;;7.0;;
28455;SDS011;15682;56.742;38.866;2024-01-30T06:52:52;17.7;;;7.2;;
28455;SDS011;15682;56.742;38.866;2024-01-30T06:54:52;16.8;;;7.2;;
28455;SDS011;15682;56.742;38.866;2024-01-30T06:56:51;15.2;;;6.5;;
28455;SDS011;15682;56.742;38.866;2024-01-30T06:58:51;16.8;;;7.3;;
28455;SDS011;15682;56.742;38.866;2024-01-30T07:00:51;14.2;;;6.7;;
28455;SDS011;15682;56.742;38.866;2024-01-30T07:02:51;14.2;;;7.0;;
28455;SDS011;15682;56.742;38.866;2024-01-30T07:04:51;18.1;;;6.9;;
28455;SDS011;15682;56.742;38.866;2024-01-30T07:06:51;13.3;;;6.4;;
28455;SDS011;15682;56.742;38.866;2024-01-30T07:08:51;15.4;;;6.8;;
28455;SDS011;15682;56.742;38.866;2024-01-30T07:10:51;15.5;;;7.1;;
28455;SDS011;15682;56.742;38.866;2024-01-30T07:12:51;16.3;;;6.8;;
28455;SDS011;15682;56.742;38.866;2024-01-30T07:14:51;15.9;;;7.0;;
28455;SDS011;15682;56.742;38.866;2024-01-30T07:16:51;18.8;;;7.7;;
28455;SDS011;15682;56.742;38.866;2024-01-30T07:18:51;13.6;;;6.9;;
28455;SDS011;15682;56.742;38.866;2024-01-30T07:20:51;15.8;;;7.3;;
28455;SDS011;15682;56.742;38.866;2024-01-30T07:22:51;15.0;;;6.8;;
28455;SDS011;15682;56.742;38.866;2024-01-30T07:24:51;17.9;;;7.4;;
28455;SDS011;15682;56.742;38.866;2024-01-30T07:26:51;18.7;;;7.6;;
28455;SDS011;15682;56.742;38.866;2024-01-30T07:28:51;17.0;;;6.9;;
28455;SDS011;15682;56.742;38.866;2024-01-30T07:30:51;18.7;;;6.5;;
28455;SDS011;15682;56.742;38.866;2024-01-30T07:32:51;14.5;;;7.4;;
28455;SDS011;15682;56.742;38.866;2024-01-30T07:34:51;17.1;;;7.3;;
28455;SDS011;15682;56.742;38.866;2024-01-30T07:36:51;19.3;;;7.0;;
28455;SDS011;15682;56.742;38.866;2024-01-30T07:38:51;15.5;;;7.3;;
28455;SDS011;15682;56.742;38.866;2024-01-30T07:40:51;17.0;;;7.2;;
28455;SDS011;15682;56.742;38.866;2024-01-30T07:42:51;18.7;;;7.2;;
28455;SDS011;15682;56.742;38.866;2024-01-30T07:44:50;17.5;;;7.2;;
28455;SDS011;15682;56.742;38.866;2024-01-30T07:46:50;19.3;;;7.4;;
28455;SDS011;15682;56.742;38.866;2024-01-30T07:48:50;17.3;;;7.1;;
28455;SDS011;15682;56.742;38.866;2024-01-30T07:50:50;17.3;;;7.6;;
28455;SDS011;15682;56.742;38.866;2024-01-30T07:52:50;18.8;;;7.5;;
28455;SDS011;15682;56.742;38.866;2024-01-30T07:54:50;19.9;;;7.6;;
28455;SDS011;15682;56.742;38.866;2024-01-30T07:56:50;17.4;;;7.1;;
28455;SDS011;15682;56.742;38.866;2024-01-30T07:58:50;20.2;;;7.4;;
28455;SDS011;15682;56.742;38.866;2024-01-30T08:00:50;20.2;;;7.6;;
28455;SDS011;15682;56.742;38.866;2024-01-30T08:02:50;15.7;;;7.2;;
28455;SDS011;15682;56.742;38.866;2024-01-30T08:04:50;13.9;;;6.7;;
28455;SDS011;15682;56.742;38.866;2024-01-30T08:06:50;15.6;;;7.0;;
28455;SDS011;15682;56.742;38.866;2024-01-30T08:08:50;20.3;;;7.0;;
28455;SDS011;15682;56.742;38.866;2024-01-30T08:10:50;16.6;;;7.3;;
28455;SDS011;15682;56.742;38.866;2024-01-30T08:12:50;17.1;;;7.4;;
28455;SDS011;15682;56.742;38.866;2024-01-30T08:14:50;17.4;;;6.9;;
28455;SDS011;15682;56.742;38.866;2024-01-30T08:16:50;16.9;;;7.3;;
28455;SDS011;15682;56.742;38.866;2024-01-30T08:18:50;15.2;;;7.0;;
28455;SDS011;15682;56.742;38.866;2024-01-30T08:20:50;19.2;;;7.8;;
28455;SDS011;15682;56.742;38.866;2024-01-30T08:22:50;16.8;;;7.6;;
28455;SDS011;15682;56.742;38.866;2024-01-30T08:24:50;16.6;;;7.6;;
28455;SDS011;15682;56.742;38.866;2024-01-30T08:26:50;15.9;;;7.2;;
28455;SDS011;15682;56.742;38.866;2024-01-30T08:28:50;17.6;;;7.2;;
28455;SDS011;15682;56.742;38.866;2024-01-30T08:30:50;18.8;;;7.6;;
28455;SDS011;15682;56.742;38.866;2024-01-30T08:32:50;17.0;;;7.3;;
28455;SDS011;15682;56.742;38.866;2024-01-30T08:34:50;17.7;;;7.3;;
28455;SDS011;15682;56.742;38.866;2024-01-30T08:36:50;18.1;;;7.4;;
28455;SDS011;15682;56.742;38.866;2024-01-30T08:38:50;18.0;;;7.5;;
28455;SDS011;15682;56.742;38.866;2024-01-30T08:40:50;18.6;;;8.0;;
28455;SDS011;15682;56.742;38.866;2024-01-30T08:42:50;18.2;;;7.5;;
28455;SDS011;15682;56.742;38.866;2024-01-30T08:44:50;18.3;;;7.1;;
28455;SDS011;15682;56.742;38.866;2024-01-30T08:46:50;17.2;;;7.3;;
28455;SDS011;15682;56.742;38.866;2024-01-30T08:48:50;14.5;;;7.1;;
28455;SDS011;15682;56.742;38.866;2024-01-30T08:50:50;18.4;;;7.1;;
28455;SDS011;15682;56.742;38.866;2024-01-30T08:52:50;16.7;;;6.7;;
28455;SDS011;15682;56.742;38.866;2024-01-30T08:54:50;16.2;;;6.7;;
28455;SDS011;15682;56.742;38.866;2024-01-30T08:56:50;16.0;;;7.3;;
28455;SDS011;15682;56.742;38.866;2024-01-30T08:58:50;15.7;;;7.1;;
28455;SDS011;15682;56.742;38.866;2024-01-30T09:00:50;22.2;;;7.5;;
28455;SDS011;15682;56.742;38.866;2024-01-30T09:02:49;15.9;;;6.7;;
28455;SDS011;15682;56.742;38.866;2024-01-30T09:04:49;16.6;;;7.4;;
28455;SDS011;15682;56.742;38.866;2024-01-30T09:06:49;17.3;;;7.4;;
28455;SDS011;15682;56.742;38.866;2024-01-30T09:08:49;16.6;;;6.8;;
28455;SDS011;15682;56.742;38.866;2024-01-30T09:10:50;16.5;;;6.9;;
28455;SDS011;15682;56.742;38.866;2024-01-30T09:12:49;16.0;;;7.3;;
28455;SDS011;15682;56.742;38.866;2024-01-30T09:14:49;19.3;;;7.3;;
28455;SDS011;15682;56.742;38.866;2024-01-30T09:16:49;17.2;;;7.4;;
28455;SDS011;15682;56.742;38.866;2024-01-30T09:18:49;16.6;;;7.0;;
28455;SDS011;15682;56.742;38.866;2024-01-30T09:20:49;11.9;;;6.2;;
28455;SDS011;15682;56.742;38.866;2024-01-30T09:22:49;18.2;;;7.3;;
28455;SDS011;15682;56.742;38.866;2024-01-30T09:24:49;14.4;;;7.2;;
28455;SDS011;15682;56.742;38.866;2024-01-30T09:26:49;17.4;;;7.2;;
28455;SDS011;15682;56.742;38.866;2024-01-30T09:28:49;16.8;;;6.9;;
28455;SDS011;15682;56.742;38.866;2024-01-30T09:30:49;17.2;;;6.8;;
28455;SDS011;15682;56.742;38.866;2024-01-30T09:32:49;13.8;;;6.8;;
28455;SDS011;15682;56.742;38.866;2024-01-30T09:34:49;15.2;;;7.2;;
28455;SDS011;15682;56.742;38.866;2024-01-30T09:36:49;16.9;;;7.0;;
28455;SDS011;15682;56.742;38.866;2024-01-30T09:38:49;15.4;;;6.7;;
28455;SDS011;15682;56.742;38.866;2024-01-30T09:40:53;16.6;;;6.9;;
28455;SDS011;15682;56.742;38.866;2024-01-30T09:42:50;16.9;;;7.0;;
28455;SDS011;15682;56.742;38.866;2024-01-30T09:44:50;14.3;;;6.4;;
28455;SDS011;15682;56.742;38.866;2024-01-30T09:46:49;15.0;;;6.5;;
28455;SDS011;15682;56.742;38.866;2024-01-30T09:48:49;17.7;;;7.3;;
28455;SDS011;15682;56.742;38.866;2024-01-30T09:50:49;15.6;;;6.8;;
28455;SDS011;15682;56.742;38.866;2024-01-30T09:52:49;16.3;;;6.5;;
28455;SDS011;15682;56.742;38.866;2024-01-30T09:54:49;18.2;;;6.7;;
28455;SDS011;15682;56.742;38.866;2024-01-30T09:56:49;19.9;;;6.9;;
28455;SDS011;15682;56.742;38.866;2024-01-30T09:58:49;18.0;;;6.6;;
28455;SDS011;15682;56.742;38.866;2024-01-30T10:00:49;15.8;;;6.8;;
28455;SDS011;15682;56.742;38.866;2024-01-30T10:02:49;15.8;;;6.8;;
28455;SDS011;15682;56.742;38.866;2024-01-30T10:04:50;15.8;;;6.5;;
28455;SDS011;15682;56.742;38.866;2024-01-30T10:06:49;13.8;;;6.4;;
28455;SDS011;15682;56.742;38.866;2024-01-30T10:08:49;19.3;;;6.8;;
28455;SDS011;15682;56.742;38.866;2024-01-30T10:10:49;16.8;;;7.3;;
28455;SDS011;15682;56.742;38.866;2024-01-30T10:12:49;17.8;;;6.6;;
28455;SDS011;15682;56.742;38.866;2024-01-30T10:14:49;17.8;;;6.9;;
28455;SDS011;15682;56.742;38.866;2024-01-30T10:16:49;20.4;;;7.3;;
28455;SDS011;15682;56.742;38.866;2024-01-30T10:18:49;16.7;;;6.7;;
28455;SDS011;15682;56.742;38.866;2024-01-30T10:20:49;18.2;;;7.5;;
28455;SDS011;15682;56.742;38.866;2024-01-30T10:22:49;23.2;;;7.6;;
28455;SDS011;15682;56.742;38.866;2024-01-30T10:24:49;18.6;;;6.9;;
28455;SDS011;15682;56.742;38.866;2024-01-30T10:26:49;15.3;;;6.7;;
28455;SDS011;15682;56.742;38.866;2024-01-30T10:28:49;13.8;;;6.4;;
28455;SDS011;15682;56.742;38.866;2024-01-30T10:30:57;14.9;;;6.5;;
28455;SDS011;15682;56.742;38.866;2024-01-30T10:32:49;16.4;;;6.7;;
28455;SDS011;15682;56.742;38.866;2024-01-30T10:34:49;19.2;;;7.1;;
28455;SDS011;15682;56.742;38.866;2024-01-30T10:36:50;16.4;;;6.8;;
28455;SDS011;15682;56.742;38.866;2024-01-30T10:38:49;13.7;;;6.4;;
28455;SDS011;15682;56.742;38.866;2024-01-30T10:40:49;18.4;;;6.6;;
28455;SDS011;15682;56.742;38.866;2024-01-30T10:42:49;20.0;;;6.8;;
28455;SDS011;15682;56.742;38.866;2024-01-30T10:44:53;15.9;;;6.6;;
28455;SDS011;15682;56.742;38.866;2024-01-30T10:46:50;16.2;;;6.2;;
28455;SDS011;15682;56.742;38.866;2024-01-30T10:48:50;16.2;;;6.5;;
28455;SDS011;15682;56.742;38.866;2024-01-30T10:50:49;18.1;;;6.3;;
28455;SDS011;15682;56.742;38.866;2024-01-30T10:52:49;16.3;;;6.4;;
28455;SDS011;15682;56.742;38.866;2024-01-30T10:54:49;14.4;;;6.2;;
28455;SDS011;15682;56.742;38.866;2024-01-30T10:56:49;17.8;;;6.6;;
28455;SDS011;15682;56.742;38.866;2024-01-30T10:58:50;17.1;;;6.2;;
28455;SDS011;15682;56.742;38.866;2024-01-30T11:00:49;18.6;;;7.0;;
28455;SDS011;15682;56.742;38.866;2024-01-30T11:02:49;16.8;;;6.7;;
28455;SDS011;15682;56.742;38.866;2024-01-30T11:04:49;17.0;;;6.8;;
28455;SDS011;15682;56.742;38.866;2024-01-30T11:06:49;18.6;;;7.0;;
28455;SDS011;15682;56.742;38.866;2024-01-30T11:08:59;19.9;;;6.8;;
28455;SDS011;15682;56.742;38.866;2024-01-30T11:10:49;14.2;;;6.3;;
28455;SDS011;15682;56.742;38.866;2024-01-30T11:12:49;23.0;;;7.1;;
28455;SDS011;15682;56.742;38.866;2024-01-30T11:14:49;19.2;;;6.9;;
28455;SDS011;15682;56.742;38.866;2024-01-30T11:16:49;18.8;;;6.6;;
28455;SDS011;15682;56.742;38.866;2024-01-30T11:18:50;14.7;;;6.6;;
28455;SDS011;15682;56.742;38.866;2024-01-30T11:20:49;27.6;;;8.4;;
28455;SDS011;15682;56.742;38.866;2024-01-30T11:22:50;14.9;;;6.5;;
28455;SDS011;15682;56.742;38.866;2024-01-30T11:24:49;18.1;;;7.2;;
28455;SDS011;15682;56.742;38.866;2024-01-30T11:26:49;21.4;;;7.3;;
28455;SDS011;15682;56.742;38.866;2024-01-30T11:28:52;16.5;;;6.7;;
28455;SDS011;15682;56.742;38.866;2024-01-30T11:30:49;16.1;;;6.0;;
28455;SDS011;15682;56.742;38.866;2024-01-30T11:32:57;28.2;;;8.6;;
28455;SDS011;15682;56.742;38.866;2024-01-30T11:34:49;19.4;;;6.9;;
28455;SDS011;15682;56.742;38.866;2024-01-30T11:36:51;19.8;;;7.1;;
28455;SDS011;15682;56.742;38.866;2024-01-30T11:38:48;20.8;;;7.0;;
28455;SDS011;15682;56.742;38.866;2024-01-30T11:40:48;16.8;;;6.9;;
28455;SDS011;15682;56.742;38.866;2024-01-30T11:42:48;17.3;;;6.5;;
28455;SDS011;15682;56.742;38.866;2024-01-30T11:44:48;21.0;;;7.3;;
28455;SDS011;15682;56.742;38.866;2024-01-30T11:46:49;20.5;;;6.9;;
28455;SDS011;15682;56.742;38.866;2024-01-30T11:48:48;17.2;;;6.3;;
28455;SDS011;15682;56.742;38.866;2024-01-30T11:50:48;16.8;;;6.5;;
28455;SDS011;15682;56.742;38.866;2024-01-30T11:52:48;19.9;;;7.1;;
28455;SDS011;15682;56.742;38.866;2024-01-30T11:54:48;16.6;;;6.4;;
28455;SDS011;15682;56.742;38.866;2024-01-30T11:56:48;19.7;;;6.9;;
28455;SDS011;15682;56.742;38.866;2024-01-30T11:58:48;17.7;;;7.0;;
28455;SDS011;15682;56.742;38.866;2024-01-30T12:00:55;18.7;;;6.8;;
28455;SDS011;15682;56.742;38.866;2024-01-30T12:02:49;15.4;;;6.9;;
28455;SDS011;15682;56.742;38.866;2024-01-30T12:04:48;20.4;;;6.9;;